sensor_id;sensor_type;location;lat;lon;timestamp;P1;durP1;ratioP1;P2;durP2;ratioP2
73487;SDS011;61721;42.206;25.320;2022-08-01T00:00:32;8.50;;;6.35;;
73487;SDS011;61721;42.206;25.320;2022-08-01T00:02:59;9.60;;;6.38;;
73487;SDS011;61721;42.206;25.320;2022-08-01T00:05:27;8.13;;;6.38;;
73487;SDS011;61721;42.206;25.320;2022-08-01T00:07:55;9.07;;;6.25;;
73487;SDS011;61721;42.206;25.320;2022-08-01T00:10:22;10.00;;;6.32;;
73487;SDS011;61721;42.206;25.320;2022-08-01T00:12:49;10.57;;;6.22;;
73487;SDS011;61721;42.206;25.320;2022-08-01T00:15:18;9.10;;;7.25;;
73487;SDS011;61721;42.206;25.320;2022-08-01T00:17:45;9.63;;;6.47;;
73487;SDS011;61721;42.206;25.320;2022-08-01T00:20:13;10.00;;;6.65;;
73487;SDS011;61721;42.206;25.320;2022-08-01T00:22:41;9.63;;;6.60;;
73487;SDS011;61721;42.206;25.320;2022-08-01T00:25:09;8.20;;;6.30;;
73487;SDS011;61721;42.206;25.320;2022-08-01T00:27:36;12.25;;;6.88;;
73487;SDS011;61721;42.206;25.320;2022-08-01T00:30:04;9.48;;;6.15;;
73487;SDS011;61721;42.206;25.320;2022-08-01T00:32:32;11.02;;;6.22;;
73487;SDS011;61721;42.206;25.320;2022-08-01T00:34:59;9.70;;;6.18;;
73487;SDS011;61721;42.206;25.320;2022-08-01T00:37:26;11.60;;;7.07;;
73487;SDS011;61721;42.206;25.320;2022-08-01T00:39:54;12.18;;;7.28;;
73487;SDS011;61721;42.206;25.320;2022-08-01T00:42:22;10.30;;;7.13;;
73487;SDS011;61721;42.206;25.320;2022-08-01T00:44:50;10.07;;;7.28;;
73487;SDS011;61721;42.206;25.320;2022-08-01T00:47:17;11.70;;;7.70;;
73487;SDS011;61721;42.206;25.320;2022-08-01T00:49:44;10.35;;;7.85;;
73487;SDS011;61721;42.206;25.320;2022-08-01T00:52:11;10.90;;;7.25;;
73487;SDS011;61721;42.206;25.320;2022-08-01T00:54:38;9.70;;;7.63;;
73487;SDS011;61721;42.206;25.320;2022-08-01T00:57:06;9.45;;;7.53;;
73487;SDS011;61721;42.206;25.320;2022-08-01T00:59:35;9.90;;;7.38;;
73487;SDS011;61721;42.206;25.320;2022-08-01T01:02:03;10.35;;;7.72;;
73487;SDS011;61721;42.206;25.320;2022-08-01T01:04:30;11.77;;;7.40;;
73487;SDS011;61721;42.206;25.320;2022-08-01T01:06:59;10.45;;;7.78;;
73487;SDS011;61721;42.206;25.320;2022-08-01T01:12:13;12.52;;;7.47;;
73487;SDS011;61721;42.206;25.320;2022-08-01T01:14:53;9.05;;;6.82;;
73487;SDS011;61721;42.206;25.320;2022-08-01T01:17:27;9.57;;;7.13;;
73487;SDS011;61721;42.206;25.320;2022-08-01T01:20:06;12.02;;;6.85;;
73487;SDS011;61721;42.206;25.320;2022-08-01T01:22:40;9.85;;;6.95;;
73487;SDS011;61721;42.206;25.320;2022-08-01T01:25:30;10.88;;;6.95;;
73487;SDS011;61721;42.206;25.320;2022-08-01T01:28:08;8.52;;;6.35;;
73487;SDS011;61721;42.206;25.320;2022-08-01T01:30:43;9.82;;;6.55;;
73487;SDS011;61721;42.206;25.320;2022-08-01T01:33:12;11.77;;;6.70;;
73487;SDS011;61721;42.206;25.320;2022-08-01T01:35:42;9.93;;;7.45;;
73487;SDS011;61721;42.206;25.320;2022-08-01T01:38:15;10.85;;;7.63;;
73487;SDS011;61721;42.206;25.320;2022-08-01T01:40:46;9.50;;;7.32;;
73487;SDS011;61721;42.206;25.320;2022-08-01T01:43:15;10.02;;;7.50;;
73487;SDS011;61721;42.206;25.320;2022-08-01T01:45:45;11.50;;;7.93;;
73487;SDS011;61721;42.206;25.320;2022-08-01T01:48:15;11.60;;;7.95;;
73487;SDS011;61721;42.206;25.320;2022-08-01T01:50:46;10.88;;;8.15;;
73487;SDS011;61721;42.206;25.320;2022-08-01T01:53:15;10.25;;;8.10;;
73487;SDS011;61721;42.206;25.320;2022-08-01T01:55:45;11.68;;;8.32;;
73487;SDS011;61721;42.206;25.320;2022-08-01T01:58:15;10.13;;;8.05;;
73487;SDS011;61721;42.206;25.320;2022-08-01T02:00:46;10.65;;;8.07;;
73487;SDS011;61721;42.206;25.320;2022-08-01T02:03:14;10.65;;;8.05;;
73487;SDS011;61721;42.206;25.320;2022-08-01T02:05:44;10.82;;;8.00;;
73487;SDS011;61721;42.206;25.320;2022-08-01T02:08:13;11.70;;;8.73;;
73487;SDS011;61721;42.206;25.320;2022-08-01T02:10:41;11.27;;;8.05;;
73487;SDS011;61721;42.206;25.320;2022-08-01T02:13:31;10.57;;;7.88;;
73487;SDS011;61721;42.206;25.320;2022-08-01T02:16:02;9.85;;;7.93;;
73487;SDS011;61721;42.206;25.320;2022-08-01T02:18:30;10.50;;;8.23;;
73487;SDS011;61721;42.206;25.320;2022-08-01T02:20:58;11.15;;;7.72;;
73487;SDS011;61721;42.206;25.320;2022-08-01T02:23:27;11.57;;;7.80;;
73487;SDS011;61721;42.206;25.320;2022-08-01T02:25:57;10.45;;;7.88;;
73487;SDS011;61721;42.206;25.320;2022-08-01T02:28:30;11.27;;;7.78;;
73487;SDS011;61721;42.206;25.320;2022-08-01T02:31:03;11.63;;;7.97;;
73487;SDS011;61721;42.206;25.320;2022-08-01T02:33:36;9.40;;;7.20;;
73487;SDS011;61721;42.206;25.320;2022-08-01T02:36:04;11.77;;;8.50;;
73487;SDS011;61721;42.206;25.320;2022-08-01T02:38:36;13.23;;;7.75;;
73487;SDS011;61721;42.206;25.320;2022-08-01T02:41:07;11.60;;;8.40;;
73487;SDS011;61721;42.206;25.320;2022-08-01T02:43:37;10.65;;;7.63;;
73487;SDS011;61721;42.206;25.320;2022-08-01T02:46:11;11.30;;;8.52;;
73487;SDS011;61721;42.206;25.320;2022-08-01T02:48:46;11.48;;;8.18;;
73487;SDS011;61721;42.206;25.320;2022-08-01T02:51:14;10.43;;;8.25;;
73487;SDS011;61721;42.206;25.320;2022-08-01T02:53:42;11.32;;;7.97;;
73487;SDS011;61721;42.206;25.320;2022-08-01T02:56:12;12.27;;;8.50;;
73487;SDS011;61721;42.206;25.320;2022-08-01T02:58:41;12.15;;;8.13;;
73487;SDS011;61721;42.206;25.320;2022-08-01T03:01:12;10.27;;;8.02;;
73487;SDS011;61721;42.206;25.320;2022-08-01T03:03:41;11.90;;;8.45;;
73487;SDS011;61721;42.206;25.320;2022-08-01T03:06:09;10.77;;;8.48;;
73487;SDS011;61721;42.206;25.320;2022-08-01T03:08:37;12.82;;;8.55;;
73487;SDS011;61721;42.206;25.320;2022-08-01T03:11:05;10.00;;;7.63;;
73487;SDS011;61721;42.206;25.320;2022-08-01T03:13:34;10.57;;;8.10;;
73487;SDS011;61721;42.206;25.320;2022-08-01T03:16:03;13.27;;;8.32;;
73487;SDS011;61721;42.206;25.320;2022-08-01T03:18:33;12.07;;;8.60;;
73487;SDS011;61721;42.206;25.320;2022-08-01T03:21:01;10.93;;;8.02;;
73487;SDS011;61721;42.206;25.320;2022-08-01T03:23:29;10.40;;;8.32;;
73487;SDS011;61721;42.206;25.320;2022-08-01T03:25:59;11.63;;;7.85;;
73487;SDS011;61721;42.206;25.320;2022-08-01T03:28:28;11.57;;;8.43;;
73487;SDS011;61721;42.206;25.320;2022-08-01T03:30:56;11.13;;;7.72;;
73487;SDS011;61721;42.206;25.320;2022-08-01T03:33:25;10.85;;;8.15;;
73487;SDS011;61721;42.206;25.320;2022-08-01T03:35:54;11.13;;;7.68;;
73487;SDS011;61721;42.206;25.320;2022-08-01T03:38:23;10.93;;;8.50;;
73487;SDS011;61721;42.206;25.320;2022-08-01T03:40:54;11.60;;;8.32;;
73487;SDS011;61721;42.206;25.320;2022-08-01T03:43:26;11.80;;;8.10;;
73487;SDS011;61721;42.206;25.320;2022-08-01T03:46:01;12.38;;;7.60;;
73487;SDS011;61721;42.206;25.320;2022-08-01T03:48:35;14.13;;;7.90;;
73487;SDS011;61721;42.206;25.320;2022-08-01T03:51:07;11.00;;;7.28;;
73487;SDS011;61721;42.206;25.320;2022-08-01T03:53:36;9.45;;;7.28;;
73487;SDS011;61721;42.206;25.320;2022-08-01T03:56:05;10.43;;;7.57;;
73487;SDS011;61721;42.206;25.320;2022-08-01T03:58:35;8.70;;;6.97;;
73487;SDS011;61721;42.206;25.320;2022-08-01T04:01:05;10.15;;;7.22;;
73487;SDS011;61721;42.206;25.320;2022-08-01T04:03:34;9.70;;;7.32;;
73487;SDS011;61721;42.206;25.320;2022-08-01T04:06:03;8.95;;;7.53;;
73487;SDS011;61721;42.206;25.320;2022-08-01T04:08:36;8.65;;;6.65;;
73487;SDS011;61721;42.206;25.320;2022-08-01T04:11:03;10.38;;;6.85;;
73487;SDS011;61721;42.206;25.320;2022-08-01T04:13:30;8.40;;;6.78;;
73487;SDS011;61721;42.206;25.320;2022-08-01T04:15:58;10.40;;;7.32;;
73487;SDS011;61721;42.206;25.320;2022-08-01T04:18:25;8.50;;;6.93;;
73487;SDS011;61721;42.206;25.320;2022-08-01T04:20:52;7.45;;;6.30;;
73487;SDS011;61721;42.206;25.320;2022-08-01T04:23:20;10.38;;;6.70;;
73487;SDS011;61721;42.206;25.320;2022-08-01T04:25:52;7.65;;;5.72;;
73487;SDS011;61721;42.206;25.320;2022-08-01T04:28:20;7.93;;;5.50;;
73487;SDS011;61721;42.206;25.320;2022-08-01T04:30:50;8.55;;;6.70;;
73487;SDS011;61721;42.206;25.320;2022-08-01T04:33:20;8.13;;;6.18;;
73487;SDS011;61721;42.206;25.320;2022-08-01T04:35:49;9.60;;;6.13;;
73487;SDS011;61721;42.206;25.320;2022-08-01T04:38:19;7.55;;;5.95;;
73487;SDS011;61721;42.206;25.320;2022-08-01T04:40:54;8.55;;;5.70;;
73487;SDS011;61721;42.206;25.320;2022-08-01T04:43:22;6.72;;;5.53;;
73487;SDS011;61721;42.206;25.320;2022-08-01T04:45:50;8.90;;;6.28;;
73487;SDS011;61721;42.206;25.320;2022-08-01T04:48:18;8.20;;;5.93;;
73487;SDS011;61721;42.206;25.320;2022-08-01T04:50:46;8.02;;;6.28;;
73487;SDS011;61721;42.206;25.320;2022-08-01T04:53:13;16.85;;;6.60;;
73487;SDS011;61721;42.206;25.320;2022-08-01T04:55:42;10.20;;;5.70;;
73487;SDS011;61721;42.206;25.320;2022-08-01T04:58:12;9.02;;;5.95;;
73487;SDS011;61721;42.206;25.320;2022-08-01T05:00:41;8.90;;;5.53;;
73487;SDS011;61721;42.206;25.320;2022-08-01T05:03:08;7.07;;;5.57;;
73487;SDS011;61721;42.206;25.320;2022-08-01T05:05:35;9.40;;;6.07;;
73487;SDS011;61721;42.206;25.320;2022-08-01T05:08:03;7.88;;;5.32;;
73487;SDS011;61721;42.206;25.320;2022-08-01T05:10:31;5.93;;;4.72;;
73487;SDS011;61721;42.206;25.320;2022-08-01T05:12:58;6.75;;;4.75;;
73487;SDS011;61721;42.206;25.320;2022-08-01T05:18:08;6.70;;;4.90;;
73487;SDS011;61721;42.206;25.320;2022-08-01T05:20:36;9.80;;;4.97;;
73487;SDS011;61721;42.206;25.320;2022-08-01T05:23:04;6.68;;;5.35;;
73487;SDS011;61721;42.206;25.320;2022-08-01T05:25:32;8.85;;;4.78;;
73487;SDS011;61721;42.206;25.320;2022-08-01T05:27:59;7.25;;;4.90;;
73487;SDS011;61721;42.206;25.320;2022-08-01T05:30:26;7.28;;;4.78;;
73487;SDS011;61721;42.206;25.320;2022-08-01T05:32:57;8.10;;;4.57;;
73487;SDS011;61721;42.206;25.320;2022-08-01T05:35:25;6.03;;;4.50;;
73487;SDS011;61721;42.206;25.320;2022-08-01T05:37:55;6.75;;;4.47;;
73487;SDS011;61721;42.206;25.320;2022-08-01T05:40:24;5.75;;;4.50;;
73487;SDS011;61721;42.206;25.320;2022-08-01T05:42:54;9.30;;;5.13;;
73487;SDS011;61721;42.206;25.320;2022-08-01T05:45:23;7.22;;;4.10;;
73487;SDS011;61721;42.206;25.320;2022-08-01T05:47:53;5.75;;;4.22;;
73487;SDS011;61721;42.206;25.320;2022-08-01T05:50:21;8.98;;;3.88;;
73487;SDS011;61721;42.206;25.320;2022-08-01T05:52:48;6.20;;;4.20;;
73487;SDS011;61721;42.206;25.320;2022-08-01T05:55:17;7.72;;;4.40;;
73487;SDS011;61721;42.206;25.320;2022-08-01T05:57:47;8.18;;;4.00;;
73487;SDS011;61721;42.206;25.320;2022-08-01T06:00:14;6.97;;;3.97;;
73487;SDS011;61721;42.206;25.320;2022-08-01T06:02:42;5.20;;;3.78;;
73487;SDS011;61721;42.206;25.320;2022-08-01T06:05:09;5.80;;;3.65;;
73487;SDS011;61721;42.206;25.320;2022-08-01T06:07:38;7.30;;;3.70;;
73487;SDS011;61721;42.206;25.320;2022-08-01T06:10:06;5.75;;;3.88;;
73487;SDS011;61721;42.206;25.320;2022-08-01T06:12:35;5.38;;;3.92;;
73487;SDS011;61721;42.206;25.320;2022-08-01T06:15:03;6.72;;;3.53;;
73487;SDS011;61721;42.206;25.320;2022-08-01T06:17:31;6.47;;;3.72;;
73487;SDS011;61721;42.206;25.320;2022-08-01T06:19:58;5.18;;;3.17;;
73487;SDS011;61721;42.206;25.320;2022-08-01T06:22:25;7.45;;;3.00;;
73487;SDS011;61721;42.206;25.320;2022-08-01T06:24:54;6.35;;;2.97;;
73487;SDS011;61721;42.206;25.320;2022-08-01T06:27:21;4.85;;;2.70;;
73487;SDS011;61721;42.206;25.320;2022-08-01T06:29:50;3.70;;;2.30;;
73487;SDS011;61721;42.206;25.320;2022-08-01T06:32:18;3.95;;;1.85;;
73487;SDS011;61721;42.206;25.320;2022-08-01T06:34:45;3.65;;;1.80;;
73487;SDS011;61721;42.206;25.320;2022-08-01T06:37:12;4.45;;;2.50;;
73487;SDS011;61721;42.206;25.320;2022-08-01T06:39:40;7.20;;;2.38;;
73487;SDS011;61721;42.206;25.320;2022-08-01T06:42:08;8.13;;;2.20;;
73487;SDS011;61721;42.206;25.320;2022-08-01T06:44:35;5.20;;;1.77;;
73487;SDS011;61721;42.206;25.320;2022-08-01T06:47:03;5.20;;;1.52;;
73487;SDS011;61721;42.206;25.320;2022-08-01T06:49:30;4.93;;;2.05;;
73487;SDS011;61721;42.206;25.320;2022-08-01T06:51:57;8.23;;;1.95;;
73487;SDS011;61721;42.206;25.320;2022-08-01T06:54:24;5.90;;;1.70;;
73487;SDS011;61721;42.206;25.320;2022-08-01T06:56:51;6.07;;;1.67;;
73487;SDS011;61721;42.206;25.320;2022-08-01T06:59:20;7.45;;;1.70;;
73487;SDS011;61721;42.206;25.320;2022-08-01T07:01:47;5.03;;;1.70;;
73487;SDS011;61721;42.206;25.320;2022-08-01T07:04:14;7.70;;;1.92;;
73487;SDS011;61721;42.206;25.320;2022-08-01T07:06:42;5.25;;;1.60;;
73487;SDS011;61721;42.206;25.320;2022-08-01T07:09:09;6.35;;;1.80;;
73487;SDS011;61721;42.206;25.320;2022-08-01T07:11:37;5.60;;;1.80;;
73487;SDS011;61721;42.206;25.320;2022-08-01T07:14:05;6.55;;;1.77;;
73487;SDS011;61721;42.206;25.320;2022-08-01T07:16:33;7.32;;;1.60;;
73487;SDS011;61721;42.206;25.320;2022-08-01T07:19:00;7.93;;;1.50;;
73487;SDS011;61721;42.206;25.320;2022-08-01T07:21:28;4.13;;;1.67;;
73487;SDS011;61721;42.206;25.320;2022-08-01T07:23:55;3.70;;;1.60;;
73487;SDS011;61721;42.206;25.320;2022-08-01T07:26:25;9.13;;;1.60;;
73487;SDS011;61721;42.206;25.320;2022-08-01T07:28:56;5.43;;;1.60;;
73487;SDS011;61721;42.206;25.320;2022-08-01T07:31:24;7.05;;;1.75;;
73487;SDS011;61721;42.206;25.320;2022-08-01T07:33:52;3.13;;;1.50;;
73487;SDS011;61721;42.206;25.320;2022-08-01T07:36:22;9.85;;;1.70;;
73487;SDS011;61721;42.206;25.320;2022-08-01T07:38:49;4.50;;;1.63;;
73487;SDS011;61721;42.206;25.320;2022-08-01T07:41:17;6.25;;;1.70;;
73487;SDS011;61721;42.206;25.320;2022-08-01T07:43:50;10.15;;;1.75;;
73487;SDS011;61721;42.206;25.320;2022-08-01T07:46:24;11.23;;;1.73;;
73487;SDS011;61721;42.206;25.320;2022-08-01T07:48:52;3.10;;;1.55;;
73487;SDS011;61721;42.206;25.320;2022-08-01T07:51:36;7.45;;;1.98;;
73487;SDS011;61721;42.206;25.320;2022-08-01T07:54:04;3.20;;;1.60;;
73487;SDS011;61721;42.206;25.320;2022-08-01T07:56:33;5.65;;;1.50;;
73487;SDS011;61721;42.206;25.320;2022-08-01T07:59:01;5.07;;;1.60;;
73487;SDS011;61721;42.206;25.320;2022-08-01T08:01:34;4.32;;;1.60;;
73487;SDS011;61721;42.206;25.320;2022-08-01T08:04:03;4.85;;;1.60;;
73487;SDS011;61721;42.206;25.320;2022-08-01T08:06:30;8.80;;;2.15;;
73487;SDS011;61721;42.206;25.320;2022-08-01T08:09:03;3.65;;;1.45;;
73487;SDS011;61721;42.206;25.320;2022-08-01T08:36:19;4.82;;;1.63;;
73487;SDS011;61721;42.206;25.320;2022-08-01T08:50:46;4.20;;;1.83;;
73487;SDS011;61721;42.206;25.320;2022-08-01T08:56:22;4.43;;;1.50;;
73487;SDS011;61721;42.206;25.320;2022-08-01T08:58:51;5.57;;;1.70;;
73487;SDS011;61721;42.206;25.320;2022-08-01T09:04:18;4.15;;;1.60;;
73487;SDS011;61721;42.206;25.320;2022-08-01T09:07:27;5.78;;;1.65;;
73487;SDS011;61721;42.206;25.320;2022-08-01T09:09:55;3.90;;;1.50;;
73487;SDS011;61721;42.206;25.320;2022-08-01T09:12:22;3.75;;;1.35;;
73487;SDS011;61721;42.206;25.320;2022-08-01T09:14:49;5.00;;;1.60;;
73487;SDS011;61721;42.206;25.320;2022-08-01T09:17:18;7.40;;;1.80;;
73487;SDS011;61721;42.206;25.320;2022-08-01T09:19:47;6.97;;;1.77;;
73487;SDS011;61721;42.206;25.320;2022-08-01T09:22:18;7.53;;;2.03;;
73487;SDS011;61721;42.206;25.320;2022-08-01T09:24:59;3.38;;;1.52;;
73487;SDS011;61721;42.206;25.320;2022-08-01T09:30:06;3.30;;;1.45;;
73487;SDS011;61721;42.206;25.320;2022-08-01T09:33:00;5.90;;;1.60;;
73487;SDS011;61721;42.206;25.320;2022-08-01T09:35:29;3.30;;;1.70;;
73487;SDS011;61721;42.206;25.320;2022-08-01T09:38:15;3.05;;;1.52;;
73487;SDS011;61721;42.206;25.320;2022-08-01T09:40:51;4.80;;;1.50;;
73487;SDS011;61721;42.206;25.320;2022-08-01T09:43:22;3.20;;;1.50;;
73487;SDS011;61721;42.206;25.320;2022-08-01T09:45:56;3.05;;;1.48;;
73487;SDS011;61721;42.206;25.320;2022-08-01T09:48:31;4.53;;;1.48;;
73487;SDS011;61721;42.206;25.320;2022-08-01T09:51:16;7.78;;;1.60;;
73487;SDS011;61721;42.206;25.320;2022-08-01T09:54:06;4.45;;;1.40;;
73487;SDS011;61721;42.206;25.320;2022-08-01T09:56:39;3.78;;;1.38;;
73487;SDS011;61721;42.206;25.320;2022-08-01T09:59:09;3.15;;;1.33;;
73487;SDS011;61721;42.206;25.320;2022-08-01T10:01:43;4.55;;;1.30;;
73487;SDS011;61721;42.206;25.320;2022-08-01T10:04:18;4.10;;;1.63;;
73487;SDS011;61721;42.206;25.320;2022-08-01T10:06:48;3.13;;;1.38;;
73487;SDS011;61721;42.206;25.320;2022-08-01T10:10:12;3.97;;;1.38;;
73487;SDS011;61721;42.206;25.320;2022-08-01T10:12:22;8.73;;;1.52;;
73487;SDS011;61721;42.206;25.320;2022-08-01T10:14:52;7.15;;;1.65;;
73487;SDS011;61721;42.206;25.320;2022-08-01T10:17:21;3.90;;;1.30;;
73487;SDS011;61721;42.206;25.320;2022-08-01T10:19:52;2.47;;;1.30;;
73487;SDS011;61721;42.206;25.320;2022-08-01T10:22:23;3.60;;;1.35;;
73487;SDS011;61721;42.206;25.320;2022-08-01T10:24:58;3.10;;;1.50;;
73487;SDS011;61721;42.206;25.320;2022-08-01T10:27:32;3.92;;;1.48;;
73487;SDS011;61721;42.206;25.320;2022-08-01T10:30:03;3.65;;;1.23;;
73487;SDS011;61721;42.206;25.320;2022-08-01T10:32:33;5.75;;;1.70;;
73487;SDS011;61721;42.206;25.320;2022-08-01T10:35:03;4.93;;;1.60;;
73487;SDS011;61721;42.206;25.320;2022-08-01T10:37:33;3.90;;;1.40;;
73487;SDS011;61721;42.206;25.320;2022-08-01T10:40:21;3.03;;;1.27;;
73487;SDS011;61721;42.206;25.320;2022-08-01T10:42:50;3.20;;;1.35;;
73487;SDS011;61721;42.206;25.320;2022-08-01T10:45:19;3.05;;;1.30;;
73487;SDS011;61721;42.206;25.320;2022-08-01T10:47:48;3.53;;;1.20;;
73487;SDS011;61721;42.206;25.320;2022-08-01T10:50:27;3.15;;;1.20;;
73487;SDS011;61721;42.206;25.320;2022-08-01T10:53:06;4.15;;;1.40;;
73487;SDS011;61721;42.206;25.320;2022-08-01T10:55:44;7.35;;;1.30;;
73487;SDS011;61721;42.206;25.320;2022-08-01T10:58:15;13.38;;;1.98;;
73487;SDS011;61721;42.206;25.320;2022-08-01T11:00:57;2.58;;;1.20;;
73487;SDS011;61721;42.206;25.320;2022-08-01T11:03:45;2.72;;;1.27;;
73487;SDS011;61721;42.206;25.320;2022-08-01T11:06:33;5.30;;;1.10;;
73487;SDS011;61721;42.206;25.320;2022-08-01T11:09:17;3.28;;;1.10;;
73487;SDS011;61721;42.206;25.320;2022-08-01T11:12:03;3.70;;;1.27;;
73487;SDS011;61721;42.206;25.320;2022-08-01T11:15:15;2.47;;;1.20;;
73487;SDS011;61721;42.206;25.320;2022-08-01T11:17:41;2.83;;;1.23;;
73487;SDS011;61721;42.206;25.320;2022-08-01T11:20:13;2.45;;;1.20;;
73487;SDS011;61721;42.206;25.320;2022-08-01T11:26:06;2.70;;;1.10;;
73487;SDS011;61721;42.206;25.320;2022-08-01T11:28:38;3.17;;;1.15;;
73487;SDS011;61721;42.206;25.320;2022-08-01T11:31:26;2.65;;;1.20;;
73487;SDS011;61721;42.206;25.320;2022-08-01T11:33:55;2.80;;;1.10;;
73487;SDS011;61721;42.206;25.320;2022-08-01T11:36:23;2.55;;;1.08;;
73487;SDS011;61721;42.206;25.320;2022-08-01T11:41:40;3.67;;;1.80;;
73487;SDS011;61721;42.206;25.320;2022-08-01T11:44:09;2.40;;;1.20;;
73487;SDS011;61721;42.206;25.320;2022-08-01T11:46:50;3.97;;;1.25;;
73487;SDS011;61721;42.206;25.320;2022-08-01T11:49:25;3.47;;;1.20;;
73487;SDS011;61721;42.206;25.320;2022-08-01T11:51:59;3.45;;;1.27;;
73487;SDS011;61721;42.206;25.320;2022-08-01T11:54:28;3.28;;;1.10;;
73487;SDS011;61721;42.206;25.320;2022-08-01T11:56:57;3.72;;;1.20;;
73487;SDS011;61721;42.206;25.320;2022-08-01T11:59:26;3.15;;;1.40;;
73487;SDS011;61721;42.206;25.320;2022-08-01T12:01:56;3.33;;;1.23;;
73487;SDS011;61721;42.206;25.320;2022-08-01T12:04:23;2.75;;;1.00;;
73487;SDS011;61721;42.206;25.320;2022-08-01T12:06:50;4.85;;;1.40;;
73487;SDS011;61721;42.206;25.320;2022-08-01T12:12:09;3.50;;;1.30;;
73487;SDS011;61721;42.206;25.320;2022-08-01T12:14:37;3.47;;;1.20;;
73487;SDS011;61721;42.206;25.320;2022-08-01T12:17:06;2.95;;;1.30;;
73487;SDS011;61721;42.206;25.320;2022-08-01T12:19:41;2.50;;;1.17;;
73487;SDS011;61721;42.206;25.320;2022-08-01T12:22:21;2.58;;;1.10;;
73487;SDS011;61721;42.206;25.320;2022-08-01T12:24:49;2.88;;;1.38;;
73487;SDS011;61721;42.206;25.320;2022-08-01T12:27:32;3.60;;;1.35;;
73487;SDS011;61721;42.206;25.320;2022-08-01T12:29:59;2.85;;;1.23;;
73487;SDS011;61721;42.206;25.320;2022-08-01T12:32:29;3.03;;;1.17;;
73487;SDS011;61721;42.206;25.320;2022-08-01T12:35:33;6.20;;;1.30;;
73487;SDS011;61721;42.206;25.320;2022-08-01T12:37:53;2.65;;;1.10;;
73487;SDS011;61721;42.206;25.320;2022-08-01T12:40:33;3.00;;;1.00;;
73487;SDS011;61721;42.206;25.320;2022-08-01T12:43:05;3.42;;;1.40;;
73487;SDS011;61721;42.206;25.320;2022-08-01T12:45:38;3.25;;;1.63;;
73487;SDS011;61721;42.206;25.320;2022-08-01T12:48:14;3.33;;;1.30;;
73487;SDS011;61721;42.206;25.320;2022-08-01T12:50:47;5.10;;;1.40;;
73487;SDS011;61721;42.206;25.320;2022-08-01T12:53:19;3.45;;;1.40;;
73487;SDS011;61721;42.206;25.320;2022-08-01T12:55:51;4.18;;;1.50;;
73487;SDS011;61721;42.206;25.320;2022-08-01T13:02:18;4.93;;;1.30;;
73487;SDS011;61721;42.206;25.320;2022-08-01T13:05:24;5.07;;;1.58;;
73487;SDS011;61721;42.206;25.320;2022-08-01T13:08:49;4.55;;;1.40;;
73487;SDS011;61721;42.206;25.320;2022-08-01T13:14:30;5.07;;;1.95;;
73487;SDS011;61721;42.206;25.320;2022-08-01T13:17:10;3.20;;;1.60;;
73487;SDS011;61721;42.206;25.320;2022-08-01T13:20:01;10.40;;;1.63;;
73487;SDS011;61721;42.206;25.320;2022-08-01T13:22:34;3.67;;;1.42;;
73487;SDS011;61721;42.206;25.320;2022-08-01T13:30:57;3.00;;;1.15;;
73487;SDS011;61721;42.206;25.320;2022-08-01T13:33:27;3.40;;;1.30;;
73487;SDS011;61721;42.206;25.320;2022-08-01T13:36:12;2.92;;;1.35;;
73487;SDS011;61721;42.206;25.320;2022-08-01T13:38:44;2.60;;;1.30;;
73487;SDS011;61721;42.206;25.320;2022-08-01T13:41:28;5.20;;;1.50;;
73487;SDS011;61721;42.206;25.320;2022-08-01T13:43:56;2.65;;;1.10;;
73487;SDS011;61721;42.206;25.320;2022-08-01T13:46:30;3.25;;;1.30;;
73487;SDS011;61721;42.206;25.320;2022-08-01T13:48:58;5.13;;;1.40;;
73487;SDS011;61721;42.206;25.320;2022-08-01T13:51:27;3.42;;;1.50;;
73487;SDS011;61721;42.206;25.320;2022-08-01T13:53:57;3.67;;;1.38;;
73487;SDS011;61721;42.206;25.320;2022-08-01T13:58:52;2.95;;;1.33;;
73487;SDS011;61721;42.206;25.320;2022-08-01T14:01:23;6.03;;;1.50;;
73487;SDS011;61721;42.206;25.320;2022-08-01T14:03:51;2.40;;;1.17;;
73487;SDS011;61721;42.206;25.320;2022-08-01T14:06:18;3.47;;;1.23;;
73487;SDS011;61721;42.206;25.320;2022-08-01T14:08:47;3.47;;;1.50;;
73487;SDS011;61721;42.206;25.320;2022-08-01T14:11:18;5.63;;;1.60;;
73487;SDS011;61721;42.206;25.320;2022-08-01T14:13:45;4.03;;;1.25;;
73487;SDS011;61721;42.206;25.320;2022-08-01T14:16:13;3.83;;;1.30;;
73487;SDS011;61721;42.206;25.320;2022-08-01T14:18:40;3.33;;;1.23;;
73487;SDS011;61721;42.206;25.320;2022-08-01T14:21:10;3.67;;;1.70;;
73487;SDS011;61721;42.206;25.320;2022-08-01T14:23:38;3.50;;;1.55;;
73487;SDS011;61721;42.206;25.320;2022-08-01T14:26:05;2.78;;;1.23;;
73487;SDS011;61721;42.206;25.320;2022-08-01T14:28:34;2.85;;;1.30;;
73487;SDS011;61721;42.206;25.320;2022-08-01T14:31:02;5.82;;;1.35;;
73487;SDS011;61721;42.206;25.320;2022-08-01T14:33:31;6.50;;;1.45;;
73487;SDS011;61721;42.206;25.320;2022-08-01T14:35:58;2.75;;;1.13;;
73487;SDS011;61721;42.206;25.320;2022-08-01T14:38:25;2.60;;;1.15;;
73487;SDS011;61721;42.206;25.320;2022-08-01T14:40:53;2.67;;;1.27;;
73487;SDS011;61721;42.206;25.320;2022-08-01T14:43:20;2.75;;;1.38;;
73487;SDS011;61721;42.206;25.320;2022-08-01T14:45:50;6.18;;;1.45;;
73487;SDS011;61721;42.206;25.320;2022-08-01T14:48:20;2.95;;;1.20;;
73487;SDS011;61721;42.206;25.320;2022-08-01T14:50:50;3.92;;;1.20;;
73487;SDS011;61721;42.206;25.320;2022-08-01T14:53:17;6.82;;;1.33;;
73487;SDS011;61721;42.206;25.320;2022-08-01T14:55:47;3.85;;;1.20;;
73487;SDS011;61721;42.206;25.320;2022-08-01T14:58:18;3.30;;;1.00;;
73487;SDS011;61721;42.206;25.320;2022-08-01T15:00:45;4.18;;;1.38;;
73487;SDS011;61721;42.206;25.320;2022-08-01T15:03:26;2.30;;;1.20;;
73487;SDS011;61721;42.206;25.320;2022-08-01T15:05:56;4.97;;;1.15;;
73487;SDS011;61721;42.206;25.320;2022-08-01T15:08:23;3.58;;;1.13;;
73487;SDS011;61721;42.206;25.320;2022-08-01T15:11:07;3.38;;;1.25;;
73487;SDS011;61721;42.206;25.320;2022-08-01T15:13:38;3.08;;;1.20;;
73487;SDS011;61721;42.206;25.320;2022-08-01T15:25:52;3.03;;;1.15;;
73487;SDS011;61721;42.206;25.320;2022-08-01T15:28:42;4.03;;;1.10;;
73487;SDS011;61721;42.206;25.320;2022-08-01T15:31:09;2.60;;;1.02;;
73487;SDS011;61721;42.206;25.320;2022-08-01T15:33:36;2.40;;;1.02;;
73487;SDS011;61721;42.206;25.320;2022-08-01T15:36:04;4.10;;;1.23;;
73487;SDS011;61721;42.206;25.320;2022-08-01T15:38:33;5.50;;;1.30;;
73487;SDS011;61721;42.206;25.320;2022-08-01T15:46:54;5.50;;;1.30;;
73487;SDS011;61721;42.206;25.320;2022-08-01T15:49:21;3.85;;;1.13;;
73487;SDS011;61721;42.206;25.320;2022-08-01T15:51:49;3.53;;;1.20;;
73487;SDS011;61721;42.206;25.320;2022-08-01T15:54:29;3.15;;;1.08;;
73487;SDS011;61721;42.206;25.320;2022-08-01T15:59:45;2.65;;;0.95;;
73487;SDS011;61721;42.206;25.320;2022-08-01T16:02:13;4.13;;;1.30;;
73487;SDS011;61721;42.206;25.320;2022-08-01T16:04:49;2.53;;;1.20;;
73487;SDS011;61721;42.206;25.320;2022-08-01T16:07:18;5.05;;;2.15;;
73487;SDS011;61721;42.206;25.320;2022-08-01T16:09:46;3.47;;;1.20;;
73487;SDS011;61721;42.206;25.320;2022-08-01T16:12:14;5.72;;;1.10;;
73487;SDS011;61721;42.206;25.320;2022-08-01T16:14:41;2.42;;;1.15;;
73487;SDS011;61721;42.206;25.320;2022-08-01T16:17:08;3.10;;;1.30;;
73487;SDS011;61721;42.206;25.320;2022-08-01T16:19:37;3.42;;;1.08;;
73487;SDS011;61721;42.206;25.320;2022-08-01T16:22:06;3.20;;;0.98;;
73487;SDS011;61721;42.206;25.320;2022-08-01T16:24:33;2.80;;;1.20;;
73487;SDS011;61721;42.206;25.320;2022-08-01T16:27:02;3.17;;;1.00;;